Terminal Aerodrome Forecast
Issued by NWS

Current Version | Previous Version | Text Only | Print | Product List | Glossary Off
Versions: 1 2 3 4 5 6 7 8 9 10 11 12 13 14 15 16 17

145
FTUS41 KILN 281732
TAFLUK
TAF
KLUK 281732Z 2818/2918 19008KT P6SM SCT200
     FM290700 VRB03KT P6SM FEW250 WS020/22035KT
     FM291300 20007KT P6SM FEW200
     FM291500 21012G18KT P6SM FEW050 SCT100=

USA.gov is the U.S. government's official web portal to all federal, state and local government web resources and services.